Aérodrome :
LOGIN :

S'inscrire | Disclaimer

   EN    FR    IT 

 










Légende :    VFR   VFR Marginal   IFR   IFR Intensif   IFR Très Intensif
Visi : 
Plafond : 
>= 8 km
>= 3000ft
5 à 8 km
1000 à 3000 ft
1500m à 5 km
500 à 1000 ft
800 à 1500m
200 à 500 ft
< 800m
< 200 ft
Symboles :   Orages  Brouillard  Fortes neiges  Fortes précipitations  Vent > 20 kt
SIGMETs :   Divers  Orages  Givrage  Turbulence  Onde Orograph.  Cendres Volcan.







- Altitude de l'aérodrome : 13 ft
- Code IATA : OST


EBOS - Oostend bruges Int.

DERNIER METAR :
  • 251150Z 35005KT 310V050 9999 FEW018 18/13 Q1027 NOSIG

METARs EXPIRÉS :
  • 251120Z 35005KT 310V040 9999 FEW015 17/12 Q1027 NOSIG
  • 251050Z 35006KT 310V020 9999 SCT012 17/13 Q1027 NOSIG
  • 251020Z 35006KT 320V070 9999 BKN011 17/12 Q1027 BECMG SCT015
  • 250950Z 02006KT 340V060 9999 BKN010 16/12 Q1027 BECMG SCT015
  • 250920Z 01006KT 330V040 9999 BKN010 16/12 Q1027 BECMG SCT015

TAF TAF EBOS
Valide du 25 à 12h jusqu'au 26 à 18h UTC


251120Z 2512/2618 35006KT 9999 SCT015
BECMG 2521/2523 BKN010
PROB30
TEMPO 2521/2607 2500 BR BKN004
BECMG 2610/2612 SCT020
Pas de NOTAMs connus pour ce terrain.



MET'MAP, la Météo Aéronautique d'un coup d'oeil ! - Copyright ORBIFLY Décembre 2007 - Disclaimer

ORBIFLY MET'MAP TEAM :

Programmation & Développement : Alexandra Zaïnal
Conception & Développement : Baudouin d'Aumeries
Co-Programmation & Développement : Marc-Olivier Méhu
Soutien technique & logistique : Manuel Goepfert

Contact : metmap@orbifly.com




SOURCES & CREDITS :

   NOAA